WJA4035 CYFI-CYYC
Flight info
| Callsign | WJA4035 |
|---|---|
| Flight time | 1h 6m |
| Altitude | 38000 |
| Route | YMM DCT CACHO DCT OLIMI Q814 ADVOX ADVOX9 |
| Aircraft | B737/M-SDE2E3FGHIRWXY/LB1 |
Departure
| Time | 2026-04-29 01:17 |
|---|---|
| Airport | Fort Mackay / Firebag (CYFI) |
Arrival
| Time | 2026-04-29 02:23 |
|---|---|
| Airport | Calgary International Airport (CYYC) |
| Time | Latitude | Longitude | Altitude | Speed | Heading |
|---|---|---|---|---|---|
| 2026-04-29 00:58 | 57.28065 | -110.98078 | 1712 ft | 0 kts | 299° |
| 2026-04-29 01:11 | 57.28066 | -110.98080 | 1717 ft | 1 kts | 303° |
| 2026-04-29 01:12 | 57.28087 | -110.98085 | 1710 ft | 5 kts | 11° |
| 2026-04-29 01:12 | 57.28121 | -110.98040 | 1711 ft | 11 kts | 57° |
| 2026-04-29 01:12 | 57.28132 | -110.97889 | 1716 ft | 12 kts | 91° |
| 2026-04-29 01:12 | 57.28130 | -110.97736 | 1717 ft | 12 kts | 97° |
| 2026-04-29 01:13 | 57.28068 | -110.97673 | 1721 ft | 11 kts | 180° |
| 2026-04-29 01:13 | 57.27990 | -110.97674 | 1726 ft | 11 kts | 180° |
| 2026-04-29 01:13 | 57.27903 | -110.97673 | 1726 ft | 16 kts | 180° |
| 2026-04-29 01:13 | 57.27779 | -110.97674 | 1730 ft | 18 kts | 181° |
| 2026-04-29 01:14 | 57.27654 | -110.97674 | 1735 ft | 18 kts | 180° |
| 2026-04-29 01:14 | 57.27526 | -110.97671 | 1737 ft | 21 kts | 179° |
| 2026-04-29 01:14 | 57.27375 | -110.97669 | 1742 ft | 22 kts | 179° |
| 2026-04-29 01:14 | 57.27220 | -110.97673 | 1749 ft | 22 kts | 180° |
| 2026-04-29 01:15 | 57.27069 | -110.97671 | 1747 ft | 21 kts | 179° |
| 2026-04-29 01:15 | 57.26922 | -110.97671 | 1762 ft | 21 kts | 180° |
| 2026-04-29 01:15 | 57.26780 | -110.97672 | 1762 ft | 20 kts | 180° |
| 2026-04-29 01:15 | 57.26667 | -110.97732 | 1769 ft | 13 kts | 194° |
| 2026-04-29 01:16 | 57.26673 | -110.97670 | 1768 ft | 9 kts | 8° |
| 2026-04-29 01:16 | 57.26779 | -110.97668 | 1762 ft | 36 kts | 359° |
| 2026-04-29 01:16 | 57.27344 | -110.97670 | 1743 ft | 124 kts | 360° |
| 2026-04-29 01:16 | 57.28426 | -110.97688 | 1991 ft | 174 kts | 359° |
| 2026-04-29 01:17 | 57.29646 | -110.97771 | 3125 ft | 178 kts | 355° |
| 2026-04-29 01:17 | 57.30820 | -110.98477 | 4071 ft | 190 kts | 326° |
| 2026-04-29 01:17 | 57.31734 | -111.00419 | 4574 ft | 218 kts | 294° |
| 2026-04-29 01:17 | 57.31845 | -111.03358 | 4993 ft | 249 kts | 254° |
| 2026-04-29 01:18 | 57.30906 | -111.06239 | 5573 ft | 278 kts | 224° |
| 2026-04-29 01:18 | 57.27290 | -111.08264 | 7991 ft | 284 kts | 183° |
| 2026-04-29 01:18 | 57.25280 | -111.08306 | 8929 ft | 293 kts | 181° |
| 2026-04-29 01:19 | 57.23224 | -111.08309 | 9940 ft | 300 kts | 181° |
| 2026-04-29 01:19 | 57.21088 | -111.08339 | 10354 ft | 319 kts | 182° |
| 2026-04-29 01:19 | 57.18777 | -111.08412 | 10502 ft | 340 kts | 182° |
| 2026-04-29 01:19 | 57.16396 | -111.08521 | 10544 ft | 344 kts | 182° |
| 2026-04-29 01:20 | 57.13969 | -111.08658 | 10590 ft | 344 kts | 183° |
| 2026-04-29 01:20 | 57.11606 | -111.08809 | 10637 ft | 344 kts | 183° |
| 2026-04-29 01:20 | 57.09215 | -111.08972 | 10684 ft | 344 kts | 183° |
| 2026-04-29 01:20 | 57.06818 | -111.09141 | 10734 ft | 344 kts | 183° |
| 2026-04-29 01:21 | 57.04425 | -111.09314 | 10786 ft | 345 kts | 183° |
| 2026-04-29 01:21 | 57.02028 | -111.09494 | 10830 ft | 345 kts | 183° |
| 2026-04-29 01:21 | 56.99635 | -111.09706 | 10868 ft | 345 kts | 187° |
| 2026-04-29 01:21 | 56.97312 | -111.10820 | 11274 ft | 348 kts | 204° |
| 2026-04-29 01:22 | 56.95065 | -111.12505 | 12296 ft | 349 kts | 205° |
| 2026-04-29 01:22 | 56.92819 | -111.14224 | 13302 ft | 352 kts | 205° |
| 2026-04-29 01:22 | 56.90538 | -111.15971 | 14166 ft | 359 kts | 205° |
| 2026-04-29 01:22 | 56.88218 | -111.17736 | 14978 ft | 364 kts | 205° |
| 2026-04-29 01:23 | 56.85864 | -111.19512 | 15835 ft | 368 kts | 205° |
| 2026-04-29 01:23 | 56.83481 | -111.21298 | 16676 ft | 372 kts | 205° |
| 2026-04-29 01:23 | 56.81034 | -111.23121 | 17519 ft | 377 kts | 205° |
| 2026-04-29 01:23 | 56.78618 | -111.24915 | 18334 ft | 382 kts | 205° |
| 2026-04-29 01:24 | 56.76139 | -111.26749 | 19041 ft | 388 kts | 204° |
| 2026-04-29 01:24 | 56.73620 | -111.28609 | 19743 ft | 393 kts | 204° |
| 2026-04-29 01:24 | 56.71075 | -111.30485 | 20459 ft | 397 kts | 204° |
| 2026-04-29 01:24 | 56.68501 | -111.32378 | 21166 ft | 402 kts | 204° |
| 2026-04-29 01:25 | 56.65895 | -111.34292 | 21867 ft | 407 kts | 204° |
| 2026-04-29 01:25 | 56.63252 | -111.36230 | 22553 ft | 411 kts | 204° |
| 2026-04-29 01:25 | 56.60578 | -111.38188 | 23176 ft | 418 kts | 204° |
| 2026-04-29 01:25 | 56.57862 | -111.40174 | 23762 ft | 424 kts | 204° |
| 2026-04-29 01:26 | 56.55112 | -111.42182 | 24335 ft | 428 kts | 204° |
| 2026-04-29 01:26 | 56.52345 | -111.44197 | 24960 ft | 430 kts | 204° |
| 2026-04-29 01:26 | 56.49563 | -111.46221 | 25558 ft | 433 kts | 204° |
| 2026-04-29 01:26 | 56.46758 | -111.48258 | 26112 ft | 436 kts | 204° |
| 2026-04-29 01:27 | 56.43930 | -111.50310 | 26660 ft | 440 kts | 204° |
| 2026-04-29 01:27 | 56.41082 | -111.52373 | 27202 ft | 443 kts | 204° |
| 2026-04-29 01:27 | 56.38211 | -111.54449 | 27740 ft | 446 kts | 204° |
| 2026-04-29 01:27 | 56.35317 | -111.56538 | 28260 ft | 450 kts | 204° |
| 2026-04-29 01:28 | 56.32398 | -111.58642 | 28764 ft | 453 kts | 204° |
| 2026-04-29 01:28 | 56.29464 | -111.60753 | 29275 ft | 455 kts | 204° |
| 2026-04-29 01:28 | 56.26519 | -111.62868 | 29862 ft | 456 kts | 204° |
| 2026-04-29 01:28 | 56.23567 | -111.64985 | 30312 ft | 459 kts | 204° |
| 2026-04-29 01:29 | 56.20578 | -111.67125 | 30549 ft | 465 kts | 204° |
| 2026-04-29 01:29 | 56.17559 | -111.69284 | 30857 ft | 469 kts | 204° |
| 2026-04-29 01:29 | 56.14522 | -111.71451 | 31236 ft | 470 kts | 204° |
| 2026-04-29 01:29 | 56.11485 | -111.73613 | 31709 ft | 469 kts | 204° |
| 2026-04-29 01:30 | 56.08458 | -111.75764 | 32236 ft | 467 kts | 204° |
| 2026-04-29 01:30 | 56.05442 | -111.77904 | 32689 ft | 466 kts | 204° |
| 2026-04-29 01:30 | 56.02419 | -111.80046 | 33086 ft | 467 kts | 204° |
| 2026-04-29 01:30 | 55.99397 | -111.82185 | 33492 ft | 467 kts | 204° |
| 2026-04-29 01:31 | 55.96384 | -111.84314 | 33946 ft | 465 kts | 204° |
| 2026-04-29 01:31 | 55.93383 | -111.86430 | 34412 ft | 463 kts | 204° |
| 2026-04-29 01:31 | 55.90388 | -111.88538 | 34722 ft | 463 kts | 204° |
| 2026-04-29 01:31 | 55.87387 | -111.90648 | 34985 ft | 464 kts | 204° |
| 2026-04-29 01:32 | 55.84379 | -111.92759 | 35249 ft | 465 kts | 204° |
| 2026-04-29 01:32 | 55.81377 | -111.94862 | 35574 ft | 464 kts | 204° |
| 2026-04-29 01:32 | 55.78406 | -111.96940 | 35896 ft | 463 kts | 204° |
| 2026-04-29 01:32 | 55.75373 | -111.99057 | 36158 ft | 464 kts | 204° |
| 2026-04-29 01:33 | 55.69302 | -112.03287 | 36151 ft | 469 kts | 204° |
| 2026-04-29 01:33 | 55.63298 | -112.07452 | 36131 ft | 462 kts | 203° |
| 2026-04-29 01:34 | 55.57318 | -112.11589 | 36148 ft | 462 kts | 203° |
| 2026-04-29 01:34 | 55.51333 | -112.15717 | 36148 ft | 462 kts | 203° |
| 2026-04-29 01:35 | 55.46312 | -112.19170 | 36131 ft | 462 kts | 203° |
| 2026-04-29 01:35 | 55.40312 | -112.23282 | 36146 ft | 463 kts | 203° |
| 2026-04-29 01:36 | 55.34308 | -112.27384 | 36141 ft | 463 kts | 203° |
| 2026-04-29 01:36 | 55.28338 | -112.31450 | 36137 ft | 463 kts | 203° |
| 2026-04-29 01:37 | 55.22327 | -112.35531 | 36148 ft | 463 kts | 203° |
| 2026-04-29 01:37 | 55.16311 | -112.39602 | 36144 ft | 464 kts | 203° |
| 2026-04-29 01:38 | 55.10290 | -112.43664 | 36144 ft | 464 kts | 203° |
| 2026-04-29 01:38 | 55.04267 | -112.47715 | 36143 ft | 464 kts | 203° |
| 2026-04-29 01:39 | 54.98250 | -112.51752 | 36149 ft | 464 kts | 203° |
| 2026-04-29 01:39 | 54.92216 | -112.55726 | 36144 ft | 464 kts | 199° |
| 2026-04-29 01:40 | 54.85838 | -112.57560 | 36155 ft | 467 kts | 183° |
| 2026-04-29 01:40 | 54.79332 | -112.57924 | 36156 ft | 468 kts | 182° |
| 2026-04-29 01:41 | 54.72822 | -112.58260 | 36155 ft | 468 kts | 183° |
| 2026-04-29 01:41 | 54.66320 | -112.58668 | 36157 ft | 468 kts | 183° |
| 2026-04-29 01:42 | 54.59817 | -112.59117 | 36156 ft | 468 kts | 183° |
| 2026-04-29 01:42 | 54.53312 | -112.59574 | 36144 ft | 467 kts | 183° |
| 2026-04-29 01:43 | 54.46817 | -112.60028 | 36154 ft | 467 kts | 183° |
| 2026-04-29 01:43 | 54.40323 | -112.60478 | 36164 ft | 467 kts | 183° |
| 2026-04-29 01:44 | 54.33828 | -112.60925 | 36158 ft | 467 kts | 183° |
| 2026-04-29 01:44 | 54.27336 | -112.61371 | 36155 ft | 467 kts | 183° |
| 2026-04-29 01:45 | 54.20886 | -112.61812 | 36162 ft | 467 kts | 183° |
| 2026-04-29 01:45 | 54.14397 | -112.62255 | 36165 ft | 467 kts | 183° |
| 2026-04-29 01:46 | 54.07907 | -112.62697 | 36162 ft | 467 kts | 183° |
| 2026-04-29 01:46 | 54.01422 | -112.63137 | 36163 ft | 466 kts | 183° |
| 2026-04-29 01:47 | 53.94941 | -112.63575 | 36145 ft | 466 kts | 183° |
| 2026-04-29 01:47 | 53.88462 | -112.64012 | 36160 ft | 466 kts | 183° |
| 2026-04-29 01:48 | 53.81984 | -112.64448 | 36165 ft | 466 kts | 183° |
| 2026-04-29 01:48 | 53.75507 | -112.64882 | 36164 ft | 466 kts | 183° |
| 2026-04-29 01:49 | 53.69023 | -112.65315 | 36170 ft | 466 kts | 183° |
| 2026-04-29 01:49 | 53.62531 | -112.65747 | 36170 ft | 467 kts | 183° |
| 2026-04-29 01:50 | 53.56043 | -112.66178 | 36175 ft | 467 kts | 183° |
| 2026-04-29 01:50 | 53.49556 | -112.66607 | 36175 ft | 467 kts | 183° |
| 2026-04-29 01:51 | 53.43066 | -112.67035 | 36177 ft | 467 kts | 183° |
| 2026-04-29 01:51 | 53.36579 | -112.67462 | 36185 ft | 466 kts | 183° |
| 2026-04-29 01:52 | 53.30091 | -112.67888 | 36175 ft | 466 kts | 183° |
| 2026-04-29 01:52 | 53.23607 | -112.68312 | 36189 ft | 466 kts | 183° |
| 2026-04-29 01:53 | 53.17126 | -112.68735 | 36188 ft | 466 kts | 183° |
| 2026-04-29 01:53 | 53.10643 | -112.69157 | 36190 ft | 466 kts | 183° |
| 2026-04-29 01:54 | 53.04200 | -112.69575 | 36188 ft | 466 kts | 183° |
| 2026-04-29 01:54 | 52.97674 | -112.69998 | 36184 ft | 466 kts | 183° |
| 2026-04-29 01:55 | 52.91232 | -112.70414 | 36186 ft | 466 kts | 183° |
| 2026-04-29 01:55 | 52.84750 | -112.70834 | 36186 ft | 466 kts | 183° |
| 2026-04-29 01:56 | 52.78268 | -112.71268 | 36187 ft | 466 kts | 186° |
| 2026-04-29 01:56 | 52.71956 | -112.73329 | 36188 ft | 462 kts | 197° |
| 2026-04-29 01:57 | 52.65763 | -112.76151 | 36186 ft | 462 kts | 198° |
| 2026-04-29 01:57 | 52.59556 | -112.78940 | 36173 ft | 463 kts | 197° |
| 2026-04-29 01:58 | 52.53331 | -112.81662 | 36178 ft | 463 kts | 197° |
| 2026-04-29 01:58 | 52.47083 | -112.84366 | 35693 ft | 469 kts | 197° |
| 2026-04-29 01:59 | 52.43922 | -112.85731 | 35090 ft | 469 kts | 197° |
| 2026-04-29 01:59 | 52.40767 | -112.87091 | 34468 ft | 468 kts | 197° |
| 2026-04-29 01:59 | 52.37640 | -112.88438 | 33952 ft | 464 kts | 197° |
| 2026-04-29 01:59 | 52.34531 | -112.89776 | 33354 ft | 460 kts | 197° |
| 2026-04-29 02:00 | 52.31457 | -112.91099 | 32872 ft | 454 kts | 197° |
| 2026-04-29 02:00 | 52.28413 | -112.92408 | 32369 ft | 450 kts | 197° |
| 2026-04-29 02:00 | 52.25407 | -112.93697 | 31882 ft | 445 kts | 197° |
| 2026-04-29 02:00 | 52.22422 | -112.94973 | 31416 ft | 441 kts | 197° |
| 2026-04-29 02:01 | 52.19464 | -112.96232 | 30939 ft | 437 kts | 197° |
| 2026-04-29 02:01 | 52.16534 | -112.97475 | 30466 ft | 434 kts | 197° |
| 2026-04-29 02:01 | 52.13623 | -112.98708 | 29960 ft | 430 kts | 197° |
| 2026-04-29 02:01 | 52.10738 | -112.99930 | 29426 ft | 426 kts | 197° |
| 2026-04-29 02:02 | 52.07887 | -113.01137 | 28940 ft | 420 kts | 197° |
| 2026-04-29 02:02 | 52.05077 | -113.02326 | 28453 ft | 416 kts | 197° |
| 2026-04-29 02:02 | 52.02290 | -113.03505 | 27961 ft | 411 kts | 197° |
| 2026-04-29 02:02 | 51.99535 | -113.04669 | 27485 ft | 407 kts | 197° |
| 2026-04-29 02:03 | 51.96809 | -113.05820 | 27003 ft | 403 kts | 197° |
| 2026-04-29 02:03 | 51.94105 | -113.06960 | 26510 ft | 400 kts | 197° |
| 2026-04-29 02:03 | 51.91422 | -113.08091 | 26055 ft | 396 kts | 197° |
| 2026-04-29 02:03 | 51.88766 | -113.09208 | 25594 ft | 393 kts | 197° |
| 2026-04-29 02:04 | 51.86124 | -113.10317 | 25137 ft | 391 kts | 197° |
| 2026-04-29 02:04 | 51.83500 | -113.11418 | 24671 ft | 388 kts | 197° |
| 2026-04-29 02:04 | 51.80896 | -113.12509 | 24212 ft | 386 kts | 197° |
| 2026-04-29 02:04 | 51.78298 | -113.13597 | 23739 ft | 385 kts | 197° |
| 2026-04-29 02:05 | 51.75708 | -113.14680 | 23190 ft | 383 kts | 197° |
| 2026-04-29 02:05 | 51.73142 | -113.15751 | 22697 ft | 380 kts | 197° |
| 2026-04-29 02:05 | 51.70592 | -113.16814 | 22235 ft | 376 kts | 197° |
| 2026-04-29 02:05 | 51.68069 | -113.17865 | 21770 ft | 373 kts | 197° |
| 2026-04-29 02:06 | 51.65569 | -113.18905 | 21307 ft | 370 kts | 197° |
| 2026-04-29 02:06 | 51.63091 | -113.19935 | 20849 ft | 367 kts | 197° |
| 2026-04-29 02:06 | 51.60631 | -113.20958 | 20387 ft | 363 kts | 197° |
| 2026-04-29 02:06 | 51.58193 | -113.21971 | 19939 ft | 361 kts | 197° |
| 2026-04-29 02:07 | 51.55769 | -113.22977 | 19491 ft | 358 kts | 197° |
| 2026-04-29 02:07 | 51.53366 | -113.23972 | 19034 ft | 356 kts | 197° |
| 2026-04-29 02:07 | 51.50977 | -113.24958 | 18602 ft | 353 kts | 197° |
| 2026-04-29 02:07 | 51.48627 | -113.26051 | 18081 ft | 349 kts | 207° |
| 2026-04-29 02:08 | 51.46635 | -113.28156 | 17611 ft | 339 kts | 228° |
| 2026-04-29 02:08 | 51.45078 | -113.30924 | 17190 ft | 332 kts | 234° |
| 2026-04-29 02:08 | 51.43619 | -113.33766 | 16733 ft | 329 kts | 235° |
| 2026-04-29 02:08 | 51.42187 | -113.36603 | 16293 ft | 326 kts | 235° |
| 2026-04-29 02:09 | 51.40764 | -113.39410 | 15860 ft | 323 kts | 235° |
| 2026-04-29 02:09 | 51.39343 | -113.42187 | 15421 ft | 321 kts | 235° |
| 2026-04-29 02:09 | 51.37929 | -113.44930 | 14997 ft | 318 kts | 235° |
| 2026-04-29 02:09 | 51.36521 | -113.47648 | 14573 ft | 316 kts | 236° |
| 2026-04-29 02:10 | 51.35123 | -113.50337 | 14381 ft | 309 kts | 236° |
| 2026-04-29 02:10 | 51.33755 | -113.52962 | 14385 ft | 309 kts | 236° |
| 2026-04-29 02:10 | 51.32358 | -113.55653 | 14376 ft | 319 kts | 236° |
| 2026-04-29 02:10 | 51.30921 | -113.58406 | 14329 ft | 324 kts | 234° |
| 2026-04-29 02:11 | 51.29480 | -113.61157 | 14322 ft | 323 kts | 234° |
| 2026-04-29 02:11 | 51.28038 | -113.63905 | 14316 ft | 322 kts | 234° |
| 2026-04-29 02:11 | 51.26604 | -113.66639 | 14312 ft | 321 kts | 234° |
| 2026-04-29 02:11 | 51.25170 | -113.69363 | 14317 ft | 321 kts | 234° |
| 2026-04-29 02:12 | 51.23747 | -113.72067 | 14156 ft | 314 kts | 234° |
| 2026-04-29 02:12 | 51.22352 | -113.74721 | 13561 ft | 310 kts | 234° |
| 2026-04-29 02:12 | 51.20974 | -113.77346 | 12982 ft | 305 kts | 234° |
| 2026-04-29 02:12 | 51.19645 | -113.79865 | 12735 ft | 289 kts | 234° |
| 2026-04-29 02:13 | 51.18369 | -113.82282 | 12254 ft | 283 kts | 233° |
| 2026-04-29 02:13 | 51.16836 | -113.84263 | 11649 ft | 290 kts | 207° |
| 2026-04-29 02:13 | 51.14864 | -113.84952 | 11143 ft | 293 kts | 184° |
| 2026-04-29 02:13 | 51.12841 | -113.84946 | 10650 ft | 289 kts | 182° |
| 2026-04-29 02:14 | 51.10841 | -113.84894 | 10210 ft | 284 kts | 182° |
| 2026-04-29 02:14 | 51.08914 | -113.84863 | 10035 ft | 269 kts | 182° |
| 2026-04-29 02:14 | 51.07081 | -113.84848 | 9738 ft | 259 kts | 182° |
| 2026-04-29 02:14 | 51.05305 | -113.84845 | 9446 ft | 250 kts | 183° |
| 2026-04-29 02:15 | 51.03583 | -113.84851 | 9078 ft | 246 kts | 183° |
| 2026-04-29 02:15 | 51.01908 | -113.84859 | 8924 ft | 231 kts | 182° |
| 2026-04-29 02:15 | 51.00854 | -113.84863 | 8580 ft | 230 kts | 183° |
| 2026-04-29 02:15 | 50.99220 | -113.84875 | 7886 ft | 239 kts | 182° |
| 2026-04-29 02:16 | 50.97552 | -113.84885 | 7475 ft | 237 kts | 183° |
| 2026-04-29 02:16 | 50.95398 | -113.84893 | 7296 ft | 229 kts | 181° |
| 2026-04-29 02:16 | 50.94334 | -113.84899 | 7222 ft | 234 kts | 181° |
| 2026-04-29 02:16 | 50.92694 | -113.84910 | 7114 ft | 237 kts | 182° |
| 2026-04-29 02:17 | 50.91041 | -113.85000 | 6991 ft | 237 kts | 194° |
| 2026-04-29 02:17 | 50.89616 | -113.86154 | 6968 ft | 229 kts | 226° |
| 2026-04-29 02:17 | 50.88838 | -113.88278 | 6922 ft | 223 kts | 259° |
| 2026-04-29 02:17 | 50.88658 | -113.90718 | 6880 ft | 226 kts | 267° |
| 2026-04-29 02:18 | 50.88573 | -113.93214 | 6796 ft | 227 kts | 272° |
| 2026-04-29 02:18 | 50.88985 | -113.95574 | 6724 ft | 223 kts | 303° |
| 2026-04-29 02:18 | 50.90127 | -113.97188 | 6670 ft | 222 kts | 330° |
| 2026-04-29 02:18 | 50.91522 | -113.98251 | 6578 ft | 224 kts | 340° |
| 2026-04-29 02:19 | 50.93026 | -113.98932 | 6442 ft | 227 kts | 348° |
| 2026-04-29 02:19 | 50.94576 | -113.99087 | 6505 ft | 224 kts | 359° |
| 2026-04-29 02:19 | 50.96141 | -113.99051 | 6498 ft | 226 kts | 359° |
| 2026-04-29 02:19 | 50.97715 | -113.99030 | 6251 ft | 221 kts | 360° |
| 2026-04-29 02:20 | 50.99192 | -113.99028 | 5962 ft | 203 kts | 0° |
| 2026-04-29 02:20 | 51.00545 | -113.99029 | 5710 ft | 186 kts | 1° |
| 2026-04-29 02:20 | 51.01785 | -113.99029 | 5463 ft | 171 kts | 2° |
| 2026-04-29 02:20 | 51.02919 | -113.99029 | 5283 ft | 152 kts | 2° |
| 2026-04-29 02:21 | 51.03921 | -113.99028 | 5037 ft | 137 kts | 4° |
| 2026-04-29 02:21 | 51.04853 | -113.99028 | 4896 ft | 135 kts | 4° |
| 2026-04-29 02:21 | 51.05815 | -113.99029 | 4723 ft | 138 kts | 4° |
| 2026-04-29 02:21 | 51.06792 | -113.99042 | 4480 ft | 142 kts | 5° |
| 2026-04-29 02:22 | 51.07776 | -113.99034 | 4295 ft | 144 kts | 3° |
| 2026-04-29 02:22 | 51.08781 | -113.99037 | 4083 ft | 144 kts | 4° |
| 2026-04-29 02:22 | 51.09770 | -113.99040 | 3855 ft | 142 kts | 3° |
| 2026-04-29 02:22 | 51.10738 | -113.99040 | 3665 ft | 139 kts | 3° |
| 2026-04-29 02:23 | 51.11680 | -113.99039 | 3565 ft | 125 kts | 360° |
| 2026-04-29 02:23 | 51.12430 | -113.99035 | 3561 ft | 91 kts | 0° |
| 2026-04-29 02:23 | 51.12946 | -113.99030 | 3560 ft | 57 kts | 0° |
| 2026-04-29 02:23 | 51.13226 | -113.99035 | 3562 ft | 23 kts | 359° |
| 2026-04-29 02:24 | 51.13357 | -113.99042 | 3558 ft | 21 kts | 353° |
| 2026-04-29 02:24 | 51.13513 | -113.99125 | 3560 ft | 24 kts | 331° |
| 2026-04-29 02:24 | 51.13617 | -113.99226 | 3561 ft | 11 kts | 336° |
| 2026-04-29 02:25 | 51.13638 | -113.99243 | 3560 ft | 5 kts | 325° |
| 2026-04-29 02:25 | 51.13605 | -113.99308 | 3560 ft | 13 kts | 180° |
| 2026-04-29 02:25 | 51.13511 | -113.99307 | 3559 ft | 13 kts | 180° |
| 2026-04-29 02:25 | 51.13420 | -113.99307 | 3557 ft | 13 kts | 180° |
| 2026-04-29 02:26 | 51.13331 | -113.99309 | 3558 ft | 14 kts | 180° |
| 2026-04-29 02:26 | 51.13217 | -113.99309 | 3559 ft | 18 kts | 180° |
| 2026-04-29 02:26 | 51.13159 | -113.99440 | 3559 ft | 17 kts | 270° |
| 2026-04-29 02:26 | 51.13160 | -113.99624 | 3559 ft | 16 kts | 267° |
| 2026-04-29 02:27 | 51.13160 | -113.99801 | 3558 ft | 16 kts | 270° |
| 2026-04-29 02:27 | 51.13160 | -113.99972 | 3558 ft | 15 kts | 270° |
| 2026-04-29 02:27 | 51.13116 | -114.00108 | 3558 ft | 14 kts | 223° |
| 2026-04-29 02:27 | 51.13086 | -114.00155 | 3558 ft | 1 kts | 224° |
| 2026-04-29 02:28 | 51.13085 | -114.00157 | 3555 ft | 0 kts | 224° |